createdAt,value
2017-02-22T00:00:41.910Z,55.73
2017-02-22T00:01:42.327Z,55.92
2017-02-22T00:02:41.984Z,55.82
2017-02-22T00:03:42.393Z,56.01
2017-02-22T00:04:42.033Z,56.01
2017-02-22T00:05:42.440Z,56.21
2017-02-22T00:06:42.483Z,56.01
2017-02-22T00:07:42.507Z,56.01
2017-02-22T00:08:42.532Z,55.63
2017-02-22T00:09:42.556Z,55.73
2017-02-22T00:10:42.185Z,55.73
2017-02-22T00:11:42.862Z,55.63
2017-02-22T00:12:42.243Z,55.73
2017-02-22T00:13:42.271Z,55.82
2017-02-22T00:14:42.696Z,55.73
2017-02-22T00:15:42.320Z,55.82
2017-02-22T00:16:43.003Z,56.3
2017-02-22T00:17:42.383Z,55.73
2017-02-22T00:18:42.411Z,55.73
2017-02-22T00:19:42.833Z,55.82
2017-02-22T00:20:42.868Z,55.82
2017-02-22T00:21:43.186Z,55.92
2017-02-22T00:22:42.518Z,55.73
2017-02-22T00:23:42.942Z,56.01
2017-02-22T00:24:42.974Z,56.01
2017-02-22T00:25:42.604Z,56.3
2017-02-22T00:26:43.325Z,56.21
2017-02-22T00:27:42.679Z,56.3
2017-02-22T00:28:42.683Z,56.3
2017-02-22T00:29:43.117Z,56.3
2017-02-22T00:30:43.131Z,56.11
2017-02-22T00:31:43.017Z,56.01
2017-02-22T00:32:42.789Z,56.59
2017-02-22T00:33:42.823Z,56.27
2017-02-22T00:34:42.856Z,56.49
2017-02-22T00:35:43.272Z,56.4
2017-02-22T00:36:43.552Z,56.3
2017-02-22T00:37:43.325Z,56.3
2017-02-22T00:38:43.357Z,56.27
2017-02-22T00:39:43.386Z,56.37
2017-02-22T00:40:43.016Z,56.4
2017-02-22T00:41:43.436Z,56.37
2017-02-22T00:42:43.464Z,56.49
2017-02-22T00:43:43.102Z,56.27
2017-02-22T00:44:43.530Z,56.47
2017-02-22T00:45:43.547Z,56.47
2017-02-22T00:46:43.180Z,56.37
2017-02-22T00:47:43.604Z,56.49
2017-02-22T00:48:43.642Z,56.47
2017-02-22T00:49:43.665Z,56.85
2017-02-22T00:50:43.292Z,56.27
2017-02-22T00:51:43.320Z,56.37
2017-02-22T00:52:43.736Z,56.47
2017-02-22T00:53:43.773Z,56.57
2017-02-22T00:54:43.798Z,56.57
2017-02-22T00:55:43.823Z,56.66
2017-02-22T00:56:43.464Z,56.47
2017-02-22T00:57:43.892Z,56.27
2017-02-22T00:58:43.908Z,56.57
2017-02-22T00:59:43.933Z,56.18
2017-02-22T01:00:43.574Z,56.57
2017-02-22T01:01:43.991Z,56.27
2017-02-22T01:02:44.015Z,56.76
2017-02-22T01:03:44.040Z,56.57
2017-02-22T01:04:43.673Z,56.47
2017-02-22T01:05:44.110Z,56.47
2017-02-22T01:06:44.131Z,55.99
2017-02-22T01:07:44.151Z,56.47
2017-02-22T01:08:44.189Z,56.27
2017-02-22T01:09:43.813Z,56.57
2017-02-22T01:10:44.236Z,56.18
2017-02-22T01:11:44.266Z,57.14
2017-02-22T01:12:43.915Z,56.66
2017-02-22T01:13:44.324Z,56.57
2017-02-22T01:14:44.352Z,56.27
2017-02-22T01:15:44.377Z,56.47
2017-02-22T01:16:44.398Z,56.95
2017-02-22T01:17:44.431Z,56.37
2017-02-22T01:18:44.451Z,56.57
2017-02-22T01:19:44.496Z,56.27
2017-02-22T01:20:44.517Z,56.37
2017-02-22T01:21:44.535Z,56.27
2017-02-22T01:22:44.571Z,56.27
2017-02-22T01:23:44.195Z,56.37
2017-02-22T01:24:44.634Z,56.85
2017-02-22T01:25:44.644Z,56.85
2017-02-22T01:26:44.674Z,56.47
2017-02-22T01:27:44.954Z,56.37
2017-02-22T01:28:44.335Z,56.37
2017-02-22T01:29:44.756Z,56.27
2017-02-22T01:30:44.388Z,56.47
2017-02-22T01:31:44.417Z,56.47
2017-02-22T01:32:45.090Z,56.47
2017-02-22T01:33:44.471Z,56.27
2017-02-22T01:34:44.503Z,56.27
2017-02-22T01:35:44.916Z,56.57
2017-02-22T01:36:44.948Z,56.18
2017-02-22T01:37:45.221Z,56.57
2017-02-22T01:38:44.610Z,56.27
2017-02-22T01:39:45.040Z,56.27
2017-02-22T01:40:45.057Z,56.47
2017-02-22T01:41:45.088Z,56.27
2017-02-22T01:42:45.365Z,56.57
2017-02-22T01:43:44.746Z,56.47
2017-02-22T01:44:44.772Z,56.27
2017-02-22T01:45:45.199Z,56.47
2017-02-22T01:46:44.832Z,56.37
2017-02-22T01:47:45.548Z,56.47
2017-02-22T01:48:45.512Z,56.57
2017-02-22T01:49:45.307Z,56.18
2017-02-22T01:50:45.330Z,56.37
2017-02-22T01:51:44.958Z,56.47
2017-02-22T01:52:45.240Z,56.47
2017-02-22T01:53:45.417Z,56.47
2017-02-22T01:54:45.442Z,56.37
2017-02-22T01:55:45.471Z,56.37
2017-02-22T01:56:45.100Z,56.27
2017-02-22T01:57:45.777Z,56.37
2017-02-22T01:58:45.557Z,56.57
2017-02-22T01:59:45.182Z,56.37
2017-02-22T02:00:45.610Z,56.09
2017-02-22T02:01:45.239Z,56.27
2017-02-22T02:02:45.541Z,56.27
2017-02-22T02:03:45.293Z,56.47
2017-02-22T02:04:45.713Z,56.47
2017-02-22T02:05:45.746Z,56.47
2017-02-22T02:06:45.771Z,56.57
2017-02-22T02:07:45.652Z,56.37
2017-02-22T02:08:45.427Z,56.57
2017-02-22T02:09:45.853Z,56.47
2017-02-22T02:10:45.878Z,56.66
2017-02-22T02:11:45.904Z,55.79
2017-02-22T02:12:46.183Z,55.79
2017-02-22T02:13:45.579Z,55.7
2017-02-22T02:14:45.984Z,55.79
2017-02-22T02:15:45.633Z,55.79
2017-02-22T02:16:46.046Z,55.79
2017-02-22T02:17:45.930Z,56.18
2017-02-22T02:18:45.703Z,55.99
2017-02-22T02:19:45.728Z,55.79
2017-02-22T02:20:45.752Z,55.7
2017-02-22T02:21:46.186Z,55.89
2017-02-22T02:22:46.470Z,56.27
2017-02-22T02:23:46.253Z,55.79
2017-02-22T02:24:46.264Z,55.7
2017-02-22T02:25:46.289Z,55.51
2017-02-22T02:26:45.930Z,55.79
2017-02-22T02:27:46.594Z,55.99
2017-02-22T02:28:45.987Z,55.79
2017-02-22T02:29:46.401Z,55.6
2017-02-22T02:30:46.425Z,56.18
2017-02-22T02:31:46.455Z,56.09
2017-02-22T02:32:46.483Z,55.7
2017-02-22T02:33:46.503Z,55.79
2017-02-22T02:34:46.140Z,55.6
2017-02-22T02:35:46.577Z,55.67
2017-02-22T02:36:46.602Z,56.05
2017-02-22T02:37:46.621Z,56.09
2017-02-22T02:38:46.251Z,55.99
2017-02-22T02:39:46.683Z,55.89
2017-02-22T02:40:46.696Z,55.79
2017-02-22T02:41:46.729Z,55.79
2017-02-22T02:42:46.370Z,55.79
2017-02-22T02:43:46.778Z,55.79
2017-02-22T02:44:46.415Z,56.09
2017-02-22T02:45:46.840Z,55.89
2017-02-22T02:46:46.869Z,56.15
2017-02-22T02:47:46.896Z,55.99
2017-02-22T02:48:46.918Z,55.99
2017-02-22T02:49:46.947Z,55.87
2017-02-22T02:50:46.578Z,55.87
2017-02-22T02:51:46.606Z,56.25
2017-02-22T02:52:47.025Z,55.6
2017-02-22T02:53:47.058Z,55.57
2017-02-22T02:54:47.083Z,55.96
2017-02-22T02:55:46.717Z,55.51
2017-02-22T02:56:47.136Z,55.79
2017-02-22T02:57:46.768Z,55.87
2017-02-22T02:58:47.193Z,55.87
2017-02-22T02:59:47.218Z,55.48
2017-02-22T03:00:47.255Z,55.57
2017-02-22T03:01:47.275Z,55.09
2017-02-22T03:02:46.901Z,55.48
2017-02-22T03:03:46.932Z,55.77
2017-02-22T03:04:47.367Z,55.19
2017-02-22T03:05:46.987Z,55.67
2017-02-22T03:06:47.412Z,55.38
2017-02-22T03:07:47.437Z,55.77
2017-02-22T03:08:47.482Z,55.19
2017-02-22T03:09:47.098Z,55.77
2017-02-22T03:10:47.531Z,55.19
2017-02-22T03:11:47.563Z,55.19
2017-02-22T03:12:47.579Z,55.19
2017-02-22T03:13:47.616Z,55.19
2017-02-22T03:14:47.242Z,55.38
2017-02-22T03:15:47.261Z,55.09
2017-02-22T03:16:47.697Z,55.48
2017-02-22T03:17:47.708Z,55.38
2017-02-22T03:18:47.731Z,55.48
2017-02-22T03:19:47.764Z,55.38
2017-02-22T03:20:47.793Z,55.57
2017-02-22T03:21:47.819Z,55.19
2017-02-22T03:22:47.839Z,55.48
2017-02-22T03:23:47.871Z,55.48
2017-02-22T03:24:47.908Z,55.29
2017-02-22T03:25:47.929Z,55.29
2017-02-22T03:26:47.969Z,55.57
2017-02-22T03:27:47.583Z,55.29
2017-02-22T03:28:47.616Z,55.19
2017-02-22T03:29:47.647Z,55.29
2017-02-22T03:30:47.667Z,55.19
2017-02-22T03:31:48.097Z,55.19
2017-02-22T03:32:47.721Z,55.09
2017-02-22T03:33:48.146Z,54.8
2017-02-22T03:34:47.781Z,55
2017-02-22T03:35:48.217Z,54.9
2017-02-22T03:36:47.831Z,55
2017-02-22T03:37:48.268Z,54.8
2017-02-22T03:38:47.886Z,54.8
2017-02-22T03:39:48.315Z,55.19
2017-02-22T03:40:47.949Z,55.29
2017-02-22T03:41:47.972Z,55.19
2017-02-22T03:42:48.391Z,54.9
2017-02-22T03:43:48.670Z,55.38
2017-02-22T03:44:48.443Z,54.9
2017-02-22T03:45:48.088Z,55.38
2017-02-22T03:46:48.108Z,55.19
2017-02-22T03:47:48.530Z,55.09
2017-02-22T03:48:48.815Z,55.09
2017-02-22T03:49:48.582Z,55.38
2017-02-22T03:50:48.615Z,55
2017-02-22T03:51:48.240Z,55
2017-02-22T03:52:48.668Z,55.29
2017-02-22T03:53:48.946Z,54.9
2017-02-22T03:54:48.323Z,54.9
2017-02-22T03:55:48.751Z,54.9
2017-02-22T03:56:48.372Z,54.8
2017-02-22T03:57:48.803Z,54.9
2017-02-22T03:58:48.694Z,54.71
2017-02-22T03:59:48.467Z,55.19
2017-02-22T04:00:48.887Z,55.19
2017-02-22T04:01:48.913Z,55.29
2017-02-22T04:02:48.933Z,54.8
2017-02-22T04:03:49.217Z,55
2017-02-22T04:04:48.607Z,54.42
2017-02-22T04:05:48.627Z,54.9
2017-02-22T04:06:49.059Z,55.09
2017-02-22T04:07:49.073Z,55
2017-02-22T04:08:48.961Z,54.42
2017-02-22T04:09:48.735Z,54.8
2017-02-22T04:10:49.159Z,54.9
2017-02-22T04:11:49.191Z,54.8
2017-02-22T04:12:49.208Z,55.09
2017-02-22T04:13:49.529Z,55
2017-02-22T04:14:49.265Z,54.52
2017-02-22T04:15:48.894Z,54.71
2017-02-22T04:16:49.319Z,55.09
2017-02-22T04:17:48.952Z,55.09
2017-02-22T04:18:49.237Z,54.71
2017-02-22T04:19:49.398Z,54.9
2017-02-22T04:20:49.464Z,54.9
2017-02-22T04:21:49.464Z,54.9
2017-02-22T04:22:49.481Z,55
2017-02-22T04:23:49.771Z,54.52
2017-02-22T04:24:49.542Z,54.8
2017-02-22T04:25:49.571Z,55
2017-02-22T04:26:49.587Z,54.8
2017-02-22T04:27:49.225Z,54.8
2017-02-22T04:28:49.893Z,54.61
2017-02-22T04:29:49.669Z,54.71
2017-02-22T04:30:49.706Z,54.9
2017-02-22T04:31:49.331Z,54.61
2017-02-22T04:32:49.367Z,54.8
2017-02-22T04:33:49.389Z,54.8
2017-02-22T04:34:49.825Z,54.32
2017-02-22T04:35:49.850Z,54.78
2017-02-22T04:36:49.467Z,54.8
2017-02-22T04:37:49.892Z,54.9
2017-02-22T04:38:49.916Z,54.52
2017-02-22T04:39:49.945Z,54.71
2017-02-22T04:40:49.970Z,54.71
2017-02-22T04:41:49.999Z,54.71
2017-02-22T04:42:49.632Z,55.09
2017-02-22T04:43:50.056Z,54.52
2017-02-22T04:44:49.682Z,54.71
2017-02-22T04:45:50.111Z,54.52
2017-02-22T04:46:49.747Z,55.09
2017-02-22T04:47:49.768Z,54.61
2017-02-22T04:48:50.189Z,54.52
2017-02-22T04:49:50.212Z,54.61
2017-02-22T04:50:49.842Z,54.22
2017-02-22T04:51:49.870Z,54.61
2017-02-22T04:52:49.912Z,54.1
2017-02-22T04:53:49.944Z,54.52
2017-02-22T04:54:50.353Z,54.13
2017-02-22T04:55:50.381Z,55.09
2017-02-22T04:56:50.008Z,54.32
2017-02-22T04:57:50.435Z,54.32
2017-02-22T04:58:50.467Z,54.3
2017-02-22T04:59:50.489Z,54.61
2017-02-22T05:00:50.530Z,54.13
2017-02-22T05:01:50.538Z,54.61
2017-02-22T05:02:50.175Z,54.3
2017-02-22T05:03:50.604Z,54.32
2017-02-22T05:04:50.245Z,54.42
2017-02-22T05:05:50.648Z,54.22
2017-02-22T05:06:50.695Z,54.22
2017-02-22T05:07:50.707Z,54.2
2017-02-22T05:08:50.732Z,54.49
2017-02-22T05:09:50.752Z,54.42
2017-02-22T05:10:50.789Z,54.52
2017-02-22T05:11:50.815Z,54.13
2017-02-22T05:12:50.842Z,54.22
2017-02-22T05:13:50.471Z,54.22
2017-02-22T05:14:50.896Z,54.1
2017-02-22T05:15:50.937Z,54.13
2017-02-22T05:16:50.950Z,54.42
2017-02-22T05:17:50.582Z,54.32
2017-02-22T05:18:51.015Z,54.32
2017-02-22T05:19:51.030Z,54.42
2017-02-22T05:20:50.665Z,54.42
2017-02-22T05:21:50.688Z,54.22
2017-02-22T05:22:51.114Z,54.22
2017-02-22T05:23:51.139Z,54.22
2017-02-22T05:24:50.771Z,54.1
2017-02-22T05:25:51.192Z,53.62
2017-02-22T05:26:51.218Z,53.84
2017-02-22T05:27:50.889Z,54.32
2017-02-22T05:28:50.875Z,54.8
2017-02-22T05:29:51.559Z,54.13
2017-02-22T05:30:50.923Z,54.22
2017-02-22T05:31:51.351Z,53.74
2017-02-22T05:32:50.989Z,54.13
2017-02-22T05:33:51.026Z,53.84
2017-02-22T05:34:51.699Z,54.32
2017-02-22T05:35:51.468Z,54.32
2017-02-22T05:36:51.500Z,53.65
2017-02-22T05:37:51.516Z,53.84
2017-02-22T05:38:51.550Z,53.94
2017-02-22T05:39:51.838Z,53.74
2017-02-22T05:40:51.598Z,54.13
2017-02-22T05:41:51.660Z,53.84
2017-02-22T05:42:51.668Z,53.94
2017-02-22T05:43:51.293Z,53.84
2017-02-22T05:44:51.959Z,53.65
2017-02-22T05:45:51.341Z,53.45
2017-02-22T05:46:51.763Z,53.65
2017-02-22T05:47:51.784Z,53.36
2017-02-22T05:48:51.822Z,53.45
2017-02-22T05:49:51.692Z,53.45
2017-02-22T05:50:51.470Z,53.45
2017-02-22T05:51:51.506Z,53.45
2017-02-22T05:52:51.936Z,53.45
2017-02-22T05:53:51.951Z,53.36
2017-02-22T05:54:52.240Z,53.36
2017-02-22T05:55:52.002Z,53.36
2017-02-22T05:56:51.647Z,53.45
2017-02-22T05:57:52.060Z,53.74
2017-02-22T05:58:52.089Z,52.78
2017-02-22T05:59:52.369Z,52.78
2017-02-22T06:00:52.142Z,53.07
2017-02-22T06:01:52.171Z,52.91
2017-02-22T06:02:52.206Z,53
2017-02-22T06:03:51.828Z,53.19
2017-02-22T06:04:52.104Z,53.36
2017-02-22T06:05:52.281Z,53
2017-02-22T06:06:52.306Z,53.48
2017-02-22T06:07:51.947Z,52.71
2017-02-22T06:08:52.360Z,53
2017-02-22T06:09:52.644Z,52.81
2017-02-22T06:10:52.413Z,53.39
2017-02-22T06:11:52.439Z,53.39
2017-02-22T06:12:52.483Z,53
2017-02-22T06:13:52.496Z,53
2017-02-22T06:14:52.521Z,52.91
2017-02-22T06:15:52.549Z,53
2017-02-22T06:16:52.573Z,52.71
2017-02-22T06:17:52.209Z,53
2017-02-22T06:18:52.234Z,53
2017-02-22T06:19:52.658Z,53.09
2017-02-22T06:20:52.705Z,53
2017-02-22T06:21:52.722Z,53.09
2017-02-22T06:22:52.733Z,53
2017-02-22T06:23:52.767Z,53.29
2017-02-22T06:24:52.399Z,53.09
2017-02-22T06:25:52.821Z,53.09
2017-02-22T06:26:52.841Z,53.09
2017-02-22T06:27:52.874Z,53.39
2017-02-22T06:28:52.911Z,53.09
2017-02-22T06:29:52.951Z,53.03
2017-02-22T06:30:52.577Z,53
2017-02-22T06:31:52.585Z,52.52
2017-02-22T06:32:52.618Z,52.83
2017-02-22T06:33:53.042Z,52.81
2017-02-22T06:34:52.671Z,52.73
2017-02-22T06:35:53.100Z,52.73
2017-02-22T06:36:52.729Z,52.42
2017-02-22T06:37:53.151Z,52.55
2017-02-22T06:38:53.179Z,52.93
2017-02-22T06:39:53.207Z,51.97
2017-02-22T06:40:53.240Z,52.35
2017-02-22T06:41:53.251Z,52.73
2017-02-22T06:42:53.298Z,52.55
2017-02-22T06:43:53.311Z,52.73
2017-02-22T06:44:53.344Z,52.45
2017-02-22T06:45:53.372Z,52.73
2017-02-22T06:46:52.996Z,52.55
2017-02-22T06:47:53.420Z,52.45
2017-02-22T06:48:53.450Z,52.35
2017-02-22T06:49:53.483Z,51.97
2017-02-22T06:50:53.508Z,52.25
2017-02-22T06:51:53.140Z,52.25
2017-02-22T06:52:53.557Z,52.25
2017-02-22T06:53:53.581Z,52.16
2017-02-22T06:54:53.219Z,52.16
2017-02-22T06:55:53.640Z,52.06
2017-02-22T06:56:53.668Z,52.16
2017-02-22T06:57:53.700Z,52.55
2017-02-22T06:58:53.725Z,52.25
2017-02-22T06:59:53.754Z,52.45
2017-02-22T07:00:53.787Z,52.16
2017-02-22T07:01:53.824Z,52.25
2017-02-22T07:02:53.832Z,52.45
2017-02-22T07:03:53.466Z,52.16
2017-02-22T07:04:53.902Z,52.35
2017-02-22T07:05:53.519Z,52.25
2017-02-22T07:06:53.548Z,52.35
2017-02-22T07:07:53.972Z,52.35
2017-02-22T07:08:53.617Z,52.35
2017-02-22T07:09:53.625Z,52.45
2017-02-22T07:10:54.314Z,52.35
2017-02-22T07:11:54.079Z,51.97
2017-02-22T07:12:54.109Z,52.06
2017-02-22T07:13:54.149Z,52.16
2017-02-22T07:14:54.165Z,51.68
2017-02-22T07:15:54.438Z,51.68
2017-02-22T07:16:54.217Z,51.68
2017-02-22T07:17:53.857Z,51.68
2017-02-22T07:18:53.877Z,51.68
2017-02-22T07:19:54.297Z,51.68
2017-02-22T07:20:54.594Z,51.87
2017-02-22T07:21:54.351Z,51.58
2017-02-22T07:22:54.388Z,52.16
2017-02-22T07:23:54.413Z,51.77
2017-02-22T07:24:54.037Z,51.77
2017-02-22T07:25:54.798Z,51.58
2017-02-22T07:26:54.495Z,51.77
2017-02-22T07:27:54.532Z,51.77
2017-02-22T07:28:54.548Z,51.48
2017-02-22T07:29:54.181Z,51.58
2017-02-22T07:30:54.606Z,51.58
2017-02-22T07:31:54.235Z,51.48
2017-02-22T07:32:54.663Z,51.58
2017-02-22T07:33:54.692Z,51.87
2017-02-22T07:34:54.317Z,51.29
2017-02-22T07:35:54.358Z,51.87
2017-02-22T07:36:54.374Z,52.06
2017-02-22T07:37:54.415Z,51.68
2017-02-22T07:38:54.428Z,52.06
2017-02-22T07:39:54.853Z,51.87
2017-02-22T07:40:54.882Z,51.39
2017-02-22T07:41:54.511Z,51.58
2017-02-22T07:42:54.534Z,51.77
2017-02-22T07:43:54.964Z,51.77
2017-02-22T07:44:54.603Z,51.39
2017-02-22T07:45:55.021Z,51.39
2017-02-22T07:46:55.050Z,51.39
2017-02-22T07:47:54.670Z,51.48
2017-02-22T07:48:55.104Z,51.77
2017-02-22T07:49:55.129Z,51
2017-02-22T07:50:55.154Z,51.39
2017-02-22T07:51:55.185Z,51.39
2017-02-22T07:52:54.809Z,51.39
2017-02-22T07:53:55.231Z,51.29
2017-02-22T07:54:54.872Z,51.29
2017-02-22T07:55:55.293Z,51.39
2017-02-22T07:56:55.324Z,51.58
2017-02-22T07:57:54.946Z,51.39
2017-02-22T07:58:55.375Z,51.1
2017-02-22T07:59:55.004Z,51.36
2017-02-22T08:00:55.045Z,51.1
2017-02-22T08:01:55.458Z,51.26
2017-02-22T08:02:55.486Z,51.29
2017-02-22T08:03:55.507Z,51.58
2017-02-22T08:04:55.540Z,51.29
2017-02-22T08:05:55.181Z,51.36
2017-02-22T08:06:55.594Z,51.07
2017-02-22T08:07:55.230Z,51.36
2017-02-22T08:08:55.651Z,51.07
2017-02-22T08:09:55.675Z,51.2
2017-02-22T08:10:55.312Z,51.1
2017-02-22T08:11:55.350Z,51.07
2017-02-22T08:12:55.362Z,51.07
2017-02-22T08:13:55.783Z,50.98
2017-02-22T08:14:55.831Z,51.17
2017-02-22T08:15:55.444Z,51.17
2017-02-22T08:16:56.125Z,50.78
2017-02-22T08:17:55.498Z,51.26
2017-02-22T08:18:55.931Z,51.07
2017-02-22T08:19:55.952Z,51.46
2017-02-22T08:20:55.976Z,51.46
2017-02-22T08:21:56.261Z,51.26
2017-02-22T08:22:56.042Z,51.07
2017-02-22T08:23:56.058Z,51.17
2017-02-22T08:24:56.087Z,51.26
2017-02-22T08:25:56.120Z,50.59
2017-02-22T08:26:56.000Z,50.69
2017-02-22T08:27:56.174Z,50.69
2017-02-22T08:28:55.823Z,50.98
2017-02-22T08:29:56.232Z,50.88
2017-02-22T08:30:55.860Z,50.98
2017-02-22T08:31:56.136Z,51.07
2017-02-22T08:32:56.312Z,50.3
2017-02-22T08:33:56.341Z,50.98
2017-02-22T08:34:55.962Z,51.07
2017-02-22T08:35:56.396Z,50.88
2017-02-22T08:36:56.275Z,50.88
2017-02-22T08:37:56.049Z,50.98
2017-02-22T08:38:56.485Z,50.98
2017-02-22T08:39:56.495Z,50.88
2017-02-22T08:40:56.131Z,50.98
2017-02-22T08:41:56.406Z,50.88
2017-02-22T08:42:56.581Z,50.88
2017-02-22T08:43:56.213Z,50.98
2017-02-22T08:44:56.651Z,50.49
2017-02-22T08:45:56.268Z,51.07
2017-02-22T08:46:56.544Z,50.3
2017-02-22T08:47:56.719Z,50.21
2017-02-22T08:48:56.742Z,51.07
2017-02-22T08:49:56.775Z,50.69
2017-02-22T08:50:56.799Z,50.3
2017-02-22T08:51:57.077Z,50.49
2017-02-22T08:52:56.459Z,50.98
2017-02-22T08:53:56.881Z,50.98
2017-02-22T08:54:56.513Z,50.98
2017-02-22T08:55:56.951Z,51.07
2017-02-22T08:56:57.219Z,50.98
2017-02-22T08:57:56.607Z,50.88
2017-02-22T08:58:56.631Z,50.88
2017-02-22T08:59:57.050Z,50.98
2017-02-22T09:00:56.679Z,50.98
2017-02-22T09:01:56.971Z,50.59
2017-02-22T09:02:57.132Z,51.17
2017-02-22T09:03:56.764Z,50.88
2017-02-22T09:04:56.801Z,51.07
2017-02-22T09:05:57.218Z,50.3
2017-02-22T09:06:57.103Z,50.88
2017-02-22T09:07:56.872Z,50.98
2017-02-22T09:08:56.901Z,50.78
2017-02-22T09:09:56.930Z,50.59
2017-02-22T09:10:56.958Z,51.07
2017-02-22T09:11:57.626Z,50.88
2017-02-22T09:12:57.006Z,50.88
2017-02-22T09:13:57.437Z,50.21
2017-02-22T09:14:57.462Z,50.4
2017-02-22T09:15:57.495Z,50.3
2017-02-22T09:16:57.764Z,50.3
2017-02-22T09:17:57.551Z,50.21
2017-02-22T09:18:57.580Z,50.3
2017-02-22T09:19:57.197Z,50.49
2017-02-22T09:20:57.226Z,50.4
2017-02-22T09:21:57.650Z,50.21
2017-02-22T09:22:57.291Z,50.11
2017-02-22T09:23:57.700Z,50.21
2017-02-22T09:24:57.737Z,50.27
2017-02-22T09:25:57.365Z,50.21
2017-02-22T09:26:57.787Z,50.4
2017-02-22T09:27:57.420Z,50.59
2017-02-22T09:28:57.844Z,50.3
2017-02-22T09:29:57.864Z,50.3
2017-02-22T09:30:57.897Z,50.21
2017-02-22T09:31:57.530Z,50.59
2017-02-22T09:32:57.951Z,50.21
2017-02-22T09:33:57.979Z,50.3
2017-02-22T09:34:58.004Z,50.4
2017-02-22T09:35:58.033Z,50.3
2017-02-22T09:36:57.662Z,50.49
2017-02-22T09:37:58.087Z,50.4
2017-02-22T09:38:57.715Z,50.21
2017-02-22T09:39:58.141Z,50.18
2017-02-22T09:40:57.781Z,50.49
2017-02-22T09:41:57.802Z,50.59
2017-02-22T09:42:57.829Z,50.59
2017-02-22T09:43:58.247Z,49.91
2017-02-22T09:44:57.891Z,50.11
2017-02-22T09:45:57.907Z,50.01
2017-02-22T09:46:58.354Z,49.99
2017-02-22T09:47:58.369Z,50.59
2017-02-22T09:48:58.399Z,50.21
2017-02-22T09:49:58.423Z,50.01
2017-02-22T09:50:58.449Z,50.66
2017-02-22T09:51:58.074Z,50.37
2017-02-22T09:52:58.099Z,50.57
2017-02-22T09:53:58.131Z,50.59
2017-02-22T09:54:58.168Z,50.21
2017-02-22T09:55:58.589Z,49.79
2017-02-22T09:56:58.221Z,49.73
2017-02-22T09:57:58.634Z,50.09
2017-02-22T09:58:58.262Z,49.99
2017-02-22T09:59:58.687Z,49.89
2017-02-22T10:00:58.720Z,50.47
2017-02-22T10:01:58.761Z,49.99
2017-02-22T10:02:58.373Z,49.82
2017-02-22T10:03:58.398Z,49.82
2017-02-22T10:04:58.443Z,50.4
2017-02-22T10:05:58.464Z,50.66
2017-02-22T10:06:58.489Z,49.99
2017-02-22T10:07:58.906Z,49.99
2017-02-22T10:08:58.937Z,50.37
2017-02-22T10:09:58.567Z,49.99
2017-02-22T10:10:58.987Z,49.99
2017-02-22T10:11:58.624Z,50.09
2017-02-22T10:12:58.657Z,50.09
2017-02-22T10:13:59.077Z,50.18
2017-02-22T10:14:59.098Z,50.37
2017-02-22T10:15:58.739Z,50.21
2017-02-22T10:16:59.144Z,50.18
2017-02-22T10:17:58.780Z,50.18
2017-02-22T10:18:59.205Z,50.27
2017-02-22T10:19:58.846Z,50.18
2017-02-22T10:20:58.885Z,49.79
2017-02-22T10:21:58.890Z,49.79
2017-02-22T10:22:59.163Z,49.99
2017-02-22T10:23:59.341Z,50.27
2017-02-22T10:24:58.964Z,50.47
2017-02-22T10:25:59.001Z,50.18
2017-02-22T10:26:59.042Z,50.57
2017-02-22T10:27:59.308Z,50.18
2017-02-22T10:28:59.476Z,50.18
2017-02-22T10:29:59.109Z,50.57
2017-02-22T10:30:59.542Z,50.66
2017-02-22T10:31:59.170Z,50.57
2017-02-22T10:32:59.835Z,50.57
2017-02-22T10:33:59.616Z,50.47
2017-02-22T10:34:59.641Z,50.57
2017-02-22T10:35:59.673Z,50.66
2017-02-22T10:36:59.709Z,49.99
2017-02-22T10:37:59.975Z,50.27
2017-02-22T10:38:59.754Z,50.47
2017-02-22T10:39:59.772Z,50.47
2017-02-22T10:40:59.422Z,50.57
2017-02-22T10:41:59.437Z,50.47
2017-02-22T10:42:59.718Z,50.47
2017-02-22T10:43:59.891Z,49.99
2017-02-22T10:44:59.528Z,49.89
2017-02-22T10:45:59.554Z,50.18
2017-02-22T10:46:59.981Z,50.57
2017-02-22T10:48:00.242Z,50.27
2017-02-22T10:48:59.625Z,49.99
2017-02-22T10:50:00.052Z,50.18
2017-02-22T10:51:00.068Z,50.09
2017-02-22T10:52:00.104Z,49.99
2017-02-22T10:53:00.418Z,50.18
2017-02-22T10:54:00.159Z,49.99
2017-02-22T10:55:00.183Z,49.99
2017-02-22T10:56:00.212Z,50.18
2017-02-22T10:56:59.845Z,50.27
2017-02-22T10:58:00.513Z,49.7
2017-02-22T10:59:00.307Z,50.66
2017-02-22T10:59:59.928Z,49.7
2017-02-22T11:00:59.952Z,50.18
2017-02-22T11:02:00.385Z,49.7
2017-02-22T11:03:00.261Z,50.09
2017-02-22T11:04:00.426Z,49.89
2017-02-22T11:05:00.458Z,49.79
2017-02-22T11:06:00.480Z,49.99
2017-02-22T11:07:00.117Z,49.99
2017-02-22T11:08:00.393Z,49.99
2017-02-22T11:09:00.566Z,49.99
2017-02-22T11:10:00.194Z,49.7
2017-02-22T11:11:00.219Z,49.99
2017-02-22T11:12:00.649Z,49.89
2017-02-22T11:13:00.521Z,49.89
2017-02-22T11:14:00.710Z,49.99
2017-02-22T11:15:00.732Z,50.09
2017-02-22T11:16:00.356Z,49.89
2017-02-22T11:17:00.816Z,49.79
2017-02-22T11:18:00.665Z,49.89
2017-02-22T11:19:00.838Z,50.18
2017-02-22T11:20:00.858Z,49.99
2017-02-22T11:21:00.908Z,50.09
2017-02-22T11:22:00.522Z,49.89
2017-02-22T11:23:00.804Z,50.27
2017-02-22T11:24:00.582Z,49.99
2017-02-22T11:25:00.611Z,50.18
2017-02-22T11:26:01.031Z,50.18
2017-02-22T11:27:01.056Z,49.7
2017-02-22T11:28:01.336Z,50.18
2017-02-22T11:29:01.118Z,49.89
2017-02-22T11:30:01.135Z,50.37
2017-02-22T11:31:01.181Z,50.27
2017-02-22T11:32:00.796Z,50.18
2017-02-22T11:33:01.470Z,49.12
2017-02-22T11:34:01.246Z,50.27
2017-02-22T11:35:01.274Z,50.18
2017-02-22T11:36:00.899Z,50.09
2017-02-22T11:37:00.928Z,49.99
2017-02-22T11:38:01.604Z,50.27
2017-02-22T11:39:01.389Z,49.79
2017-02-22T11:40:01.010Z,50.18
2017-02-22T11:41:01.039Z,50.18
2017-02-22T11:42:01.061Z,49.89
2017-02-22T11:43:01.740Z,49.6
2017-02-22T11:44:01.129Z,49.99
2017-02-22T11:45:01.155Z,49.7
2017-02-22T11:46:01.187Z,49.89
2017-02-22T11:47:01.604Z,49.99
2017-02-22T11:48:01.236Z,49.89
2017-02-22T11:49:01.254Z,49.7
2017-02-22T11:50:01.679Z,50.18
2017-02-22T11:51:01.311Z,49.89
2017-02-22T11:52:01.337Z,50.18
2017-02-22T11:53:01.760Z,49.79
2017-02-22T11:54:01.389Z,49.7
2017-02-22T11:55:01.814Z,49.89
2017-02-22T11:56:01.844Z,49.99
2017-02-22T11:57:01.863Z,50.18
2017-02-22T11:58:01.504Z,49.7
2017-02-22T11:59:01.533Z,49.99
2017-02-22T12:00:01.950Z,49.51
2017-02-22T12:01:01.982Z,49.79
2017-02-22T12:02:02.008Z,50.09
2017-02-22T12:03:02.028Z,49.99
2017-02-22T12:04:02.057Z,49.6
2017-02-22T12:05:02.094Z,49.99
2017-02-22T12:06:02.125Z,49.89
2017-02-22T12:07:01.752Z,49.89
2017-02-22T12:08:02.167Z,50.09
2017-02-22T12:09:02.192Z,49.7
2017-02-22T12:10:01.833Z,49.89
2017-02-22T12:11:02.245Z,49.89
2017-02-22T12:12:02.272Z,49.89
2017-02-22T12:13:02.292Z,49.99
2017-02-22T12:14:02.328Z,49.99
2017-02-22T12:15:02.361Z,49.99
2017-02-22T12:16:01.984Z,49.41
2017-02-22T12:17:02.423Z,49.6
2017-02-22T12:18:02.052Z,49.51
2017-02-22T12:19:02.464Z,49.41
2017-02-22T12:20:02.116Z,49.51
2017-02-22T12:21:02.567Z,49.51
2017-02-22T12:22:02.158Z,49.41
2017-02-22T12:23:02.167Z,49.51
2017-02-22T12:24:02.611Z,49.41
2017-02-22T12:25:02.635Z,49.41
2017-02-22T12:26:02.262Z,49.6
2017-02-22T12:27:02.686Z,49.41
2017-02-22T12:28:02.723Z,49.7
2017-02-22T12:29:02.987Z,49.41
2017-02-22T12:30:02.369Z,49.7
2017-02-22T12:31:02.801Z,49.41
2017-02-22T12:32:02.826Z,49.32
2017-02-22T12:33:02.843Z,48.93
2017-02-22T12:34:03.123Z,49.41
2017-02-22T12:35:02.904Z,49.6
2017-02-22T12:36:02.921Z,49.51
2017-02-22T12:37:02.968Z,48.93
2017-02-22T12:38:02.577Z,49.22
2017-02-22T12:39:02.863Z,49.7
2017-02-22T12:40:02.640Z,48.83
2017-02-22T12:41:02.665Z,49.6
2017-02-22T12:42:02.685Z,49.7
2017-02-22T12:43:03.115Z,49.32
2017-02-22T12:44:03.392Z,49.22
2017-02-22T12:45:03.168Z,49.51
2017-02-22T12:46:03.201Z,49.7
2017-02-22T12:47:03.224Z,49.7
2017-02-22T12:48:03.254Z,49.22
2017-02-22T12:49:03.147Z,48.93
2017-02-22T12:50:03.306Z,49.89
2017-02-22T12:51:02.936Z,49.12
2017-02-22T12:52:03.361Z,49.51
2017-02-22T12:53:03.387Z,48.93
2017-02-22T12:54:03.272Z,49.02
2017-02-22T12:55:03.042Z,49.22
2017-02-22T12:56:03.472Z,49.32
2017-02-22T12:57:03.500Z,48.93
2017-02-22T12:58:03.517Z,49.41